メインページ
METAR-TAF:

METAR-TAF

空港 :

Bleibler Ranch Aerodrome

クリントン, ブリティッシュコロンビア州, カナダ

緯度: 51-15-59N, 経度: 121-41-05W, 海抜: 1126m

現時点の気象観測

当レポートは26分前の18:00(UTC)に作成
南東の風 13kt、最大19ktの突風を伴う
気温 9°C
湿度 66%
気圧 1008 hPa
視程: 14.5km
晴天

METAR: CYIN 171800Z AUTO 14013G19KT 9SM CLR 09/03 A2977 RMK SLP096 DENSITY ALT 3900FT

時間: 10:26 (18:26 UTC)


TAF: 見つかりません

4,000以上の空港の気象観測と天気予報(METAR報とTAF報)

利用可能な観測所は地図上に黄色い丸と赤い丸で示す。

丸の上にカーソルを重ねると観測所名を参照できる。

次にクリックすると気象観測と天気予報を参照できる。

マップの切り替え:黒色「×」印の緑ボタンをクリックして拡大、「-」印の緑ボタンをクリックして縮小、緑色の三角印をクリックして隣りの地図に切り替え


METAR-TAF: